createdAt,value
2017-09-08T00:01:20.467Z,5.77
2017-09-08T00:03:48.871Z,5.77
2017-09-08T00:06:16.536Z,6.10
2017-09-08T00:08:44.152Z,5.73
2017-09-08T00:11:11.727Z,6.00
2017-09-08T00:13:40.083Z,5.50
2017-09-08T00:16:07.646Z,5.07
2017-09-08T00:18:35.248Z,6.63
2017-09-08T00:21:02.819Z,5.70
2017-09-08T00:23:30.407Z,6.60
2017-09-08T00:25:58.011Z,6.00
2017-09-08T00:28:26.517Z,5.57
2017-09-08T00:30:54.168Z,5.63
2017-09-08T00:33:21.747Z,5.10
2017-09-08T00:35:49.339Z,6.97
2017-09-08T00:38:16.905Z,5.40
2017-09-08T00:40:44.468Z,6.43
2017-09-08T00:43:12.160Z,5.90
2017-09-08T00:45:39.729Z,4.93
2017-09-08T00:48:07.328Z,5.30
2017-09-08T00:50:34.899Z,6.20
2017-09-08T00:53:02.467Z,5.53
2017-09-08T00:55:30.876Z,7.43
2017-09-08T00:57:58.447Z,5.20
2017-09-08T01:00:26.038Z,5.30
2017-09-08T01:02:53.690Z,5.77
2017-09-08T01:05:21.259Z,6.23
2017-09-08T01:07:48.859Z,5.60
2017-09-08T01:10:17.191Z,5.97
2017-09-08T01:12:44.778Z,5.90
2017-09-08T01:15:13.146Z,5.17
2017-09-08T01:17:40.708Z,6.13
2017-09-08T01:20:09.068Z,5.80
2017-09-08T01:22:36.627Z,5.10
2017-09-08T01:25:04.188Z,5.30
2017-09-08T01:27:31.770Z,5.83
2017-09-08T01:30:00.096Z,5.70
2017-09-08T01:32:27.699Z,6.27
2017-09-08T01:34:56.060Z,5.83
2017-09-08T01:37:23.619Z,6.07
2017-09-08T01:39:51.183Z,5.23
2017-09-08T01:42:19.551Z,6.70
2017-09-08T01:44:47.912Z,6.43
2017-09-08T01:47:15.481Z,5.37
2017-09-08T01:49:43.851Z,6.37
2017-09-08T01:52:11.408Z,5.90
2017-09-08T01:54:38.967Z,6.20
2017-09-08T01:57:06.563Z,6.10
2017-09-08T01:59:34.885Z,7.20
2017-09-08T02:02:02.512Z,6.30
2017-09-08T02:04:30.083Z,6.00
2017-09-08T02:06:57.653Z,6.20
2017-09-08T02:09:25.249Z,6.63
2017-09-08T02:11:52.820Z,6.43
2017-09-08T02:14:20.428Z,6.87
2017-09-08T02:16:47.992Z,6.20
2017-09-08T02:19:15.548Z,6.77
2017-09-08T02:21:48.727Z,7.40
2017-09-08T02:24:16.287Z,7.10
2017-09-08T02:26:43.888Z,6.53
2017-09-08T02:29:11.448Z,6.67
2017-09-08T02:31:39.016Z,6.40
2017-09-08T02:34:07.337Z,8.13
2017-09-08T02:36:34.927Z,6.60
2017-09-08T02:39:02.516Z,5.83
2017-09-08T02:41:31.049Z,6.37
2017-09-08T02:43:58.642Z,6.60
2017-09-08T02:46:26.333Z,6.73
2017-09-08T02:48:54.664Z,6.80
2017-09-08T02:51:22.223Z,6.40
2017-09-08T02:53:49.970Z,6.53
2017-09-08T02:56:17.560Z,6.37
2017-09-08T02:58:45.119Z,6.43
2017-09-08T03:01:12.706Z,6.20
2017-09-08T03:03:41.075Z,6.50
2017-09-08T03:06:09.428Z,5.93
2017-09-08T03:08:36.988Z,4.90
2017-09-08T03:11:04.584Z,5.23
2017-09-08T03:13:32.159Z,5.47
2017-09-08T03:15:59.714Z,5.03
2017-09-08T03:18:27.363Z,5.37
2017-09-08T03:20:54.961Z,4.80
2017-09-08T03:23:22.547Z,5.07
2017-09-08T03:25:50.172Z,3.67
2017-09-08T03:28:17.863Z,4.40
2017-09-08T03:30:45.433Z,4.40
2017-09-08T03:33:13.763Z,4.83
2017-09-08T03:35:41.364Z,4.27
2017-09-08T03:38:09.796Z,5.17
2017-09-08T03:40:37.354Z,4.03
2017-09-08T03:43:04.943Z,4.37
2017-09-08T03:45:32.508Z,5.17
2017-09-08T03:48:00.111Z,5.50
2017-09-08T03:50:27.663Z,4.97
2017-09-08T03:52:55.228Z,5.90
2017-09-08T03:55:22.819Z,6.00
2017-09-08T03:57:50.392Z,5.40
2017-09-08T04:00:17.983Z,6.30
2017-09-08T04:02:46.311Z,5.53
2017-09-08T04:05:13.896Z,5.90
2017-09-08T04:07:41.460Z,5.23
2017-09-08T04:10:09.019Z,6.07
2017-09-08T04:12:36.724Z,5.40
2017-09-08T04:15:04.332Z,4.90
2017-09-08T04:17:31.991Z,4.83
2017-09-08T04:20:00.320Z,4.80
2017-09-08T04:22:27.945Z,4.13
2017-09-08T04:24:56.312Z,4.07
2017-09-08T04:27:24.640Z,5.67
2017-09-08T04:29:52.204Z,4.70
2017-09-08T04:32:19.795Z,4.80
2017-09-08T04:34:48.115Z,3.97
2017-09-08T04:37:15.699Z,4.63
2017-09-08T04:39:43.260Z,4.40
2017-09-08T04:42:10.836Z,3.77
2017-09-08T04:44:38.401Z,4.40
2017-09-08T04:47:05.982Z,3.77
2017-09-08T04:49:34.351Z,4.30
2017-09-08T04:52:02.678Z,3.70
2017-09-08T04:54:30.327Z,4.03
2017-09-08T04:56:57.923Z,4.73
2017-09-08T04:59:25.521Z,4.03
2017-09-08T05:01:53.992Z,3.80
2017-09-08T05:04:22.343Z,4.00
2017-09-08T05:06:49.937Z,4.43
2017-09-08T05:09:18.271Z,4.90
2017-09-08T05:11:45.843Z,4.37
2017-09-08T05:14:13.399Z,4.30
2017-09-08T05:16:41.003Z,3.70
2017-09-08T05:19:08.635Z,4.17
2017-09-08T05:21:36.199Z,4.50
2017-09-08T05:24:04.561Z,4.00
2017-09-08T05:26:32.131Z,4.30
2017-09-08T05:29:00.495Z,4.07
2017-09-08T05:31:28.055Z,4.40
2017-09-08T05:33:55.682Z,4.17
2017-09-08T05:36:23.255Z,4.30
2017-09-08T05:38:50.835Z,3.00
2017-09-08T05:41:18.588Z,4.23
2017-09-08T05:43:46.241Z,3.63
2017-09-08T05:46:13.796Z,3.60
2017-09-08T05:48:41.379Z,3.97
2017-09-08T05:51:08.945Z,4.50
2017-09-08T05:53:37.292Z,4.30
2017-09-08T05:56:05.015Z,4.13
2017-09-08T05:58:32.619Z,3.77
2017-09-08T06:01:00.191Z,3.13
2017-09-08T06:03:28.535Z,3.87
2017-09-08T06:05:56.235Z,4.07
2017-09-08T06:08:24.562Z,4.10
2017-09-08T06:10:52.159Z,3.27
2017-09-08T06:13:19.727Z,3.80
2017-09-08T06:15:47.255Z,4.37
2017-09-08T06:18:14.863Z,3.47
2017-09-08T06:20:43.200Z,4.30
2017-09-08T06:23:10.763Z,4.00
2017-09-08T06:25:38.355Z,5.20
2017-09-08T06:28:06.684Z,4.17
2017-09-08T06:30:34.250Z,3.20
2017-09-08T06:33:01.820Z,2.70
2017-09-08T06:35:29.400Z,2.70
2017-09-08T06:37:57.758Z,2.93
2017-09-08T06:40:25.320Z,3.03
2017-09-08T06:42:53.712Z,3.17
2017-09-08T06:45:22.073Z,3.40
2017-09-08T06:47:49.671Z,3.80
2017-09-08T06:50:17.242Z,3.33
2017-09-08T06:52:44.841Z,2.37
2017-09-08T06:55:12.407Z,3.80
2017-09-08T06:57:40.004Z,3.40
2017-09-08T07:00:07.579Z,2.90
2017-09-08T07:02:35.168Z,3.23
2017-09-08T07:05:02.786Z,3.20
2017-09-08T07:07:30.351Z,3.00
2017-09-08T07:09:57.911Z,3.03
2017-09-08T07:12:25.499Z,3.57
2017-09-08T07:14:53.059Z,3.40
2017-09-08T07:17:20.655Z,2.07
2017-09-08T07:19:49.119Z,2.87
2017-09-08T07:22:16.745Z,3.60
2017-09-08T07:24:44.304Z,2.90
2017-09-08T07:27:11.903Z,2.40
2017-09-08T07:29:40.229Z,3.20
2017-09-08T07:32:07.823Z,4.30
2017-09-08T07:34:35.420Z,2.90
2017-09-08T07:37:02.995Z,2.30
2017-09-08T07:39:30.671Z,3.43
2017-09-08T07:41:58.265Z,3.47
2017-09-08T07:44:26.600Z,3.40
2017-09-08T07:46:54.207Z,3.20
2017-09-08T07:49:22.535Z,3.07
2017-09-08T07:51:50.103Z,3.17
2017-09-08T07:54:17.702Z,3.90
2017-09-08T07:56:46.040Z,3.50
2017-09-08T07:59:13.643Z,3.13
2017-09-08T08:01:41.967Z,3.30
2017-09-08T08:04:09.574Z,2.90
2017-09-08T08:06:37.952Z,3.60
2017-09-08T08:09:05.527Z,2.30
2017-09-08T08:11:33.123Z,3.30
2017-09-08T08:14:01.653Z,3.80
2017-09-08T08:16:30.039Z,2.80
2017-09-08T08:18:58.448Z,2.40
2017-09-08T08:21:26.015Z,2.80
2017-09-08T08:23:53.594Z,1.87
2017-09-08T08:26:21.164Z,3.07
2017-09-08T08:28:48.805Z,2.33
2017-09-08T08:31:16.367Z,3.90
2017-09-08T08:33:43.959Z,3.50
2017-09-08T08:36:12.290Z,2.73
2017-09-08T08:38:39.879Z,3.10
2017-09-08T08:41:07.467Z,2.80
2017-09-08T08:43:35.789Z,3.33
2017-09-08T08:46:03.371Z,3.10
2017-09-08T08:48:30.935Z,2.80
2017-09-08T08:50:58.535Z,3.70
2017-09-08T08:53:26.146Z,4.30
2017-09-08T08:55:53.726Z,3.00
2017-09-08T08:58:22.049Z,3.00
2017-09-08T09:00:49.800Z,2.10
2017-09-08T09:03:17.381Z,2.10
2017-09-08T09:05:44.946Z,3.10
2017-09-08T09:08:12.523Z,2.63
2017-09-08T09:10:40.088Z,3.47
2017-09-08T09:13:08.443Z,2.97
2017-09-08T09:15:36.001Z,3.33
2017-09-08T09:18:03.591Z,2.17
2017-09-08T09:20:31.924Z,2.90
2017-09-08T09:22:59.524Z,3.60
2017-09-08T09:25:27.856Z,2.53
2017-09-08T09:27:55.440Z,3.43
2017-09-08T09:30:23.047Z,2.40
2017-09-08T09:32:50.671Z,4.60
2017-09-08T09:35:18.294Z,3.33
2017-09-08T09:37:45.900Z,2.43
2017-09-08T09:40:14.260Z,4.07
2017-09-08T09:42:41.844Z,2.90
2017-09-08T09:45:10.183Z,3.10
2017-09-08T09:47:37.763Z,3.60
2017-09-08T09:50:05.323Z,3.93
2017-09-08T09:52:33.675Z,3.00
2017-09-08T09:55:01.227Z,4.27
2017-09-08T09:57:28.880Z,4.17
2017-09-08T09:59:56.462Z,2.10
2017-09-08T10:02:24.032Z,3.30
2017-09-08T10:04:51.604Z,3.50
2017-09-08T10:07:19.983Z,3.80
2017-09-08T10:09:48.343Z,3.63
2017-09-08T10:12:16.706Z,4.47
2017-09-08T10:14:44.383Z,3.40
2017-09-08T10:17:12.739Z,4.23
2017-09-08T10:19:40.303Z,3.90
2017-09-08T10:22:07.883Z,4.60
2017-09-08T10:24:36.461Z,4.20
2017-09-08T10:27:04.801Z,6.23
2017-09-08T10:29:32.396Z,5.23
2017-09-08T10:32:00.827Z,5.70
2017-09-08T10:34:28.471Z,4.90
2017-09-08T10:36:56.128Z,3.97
2017-09-08T10:39:23.688Z,6.40
2017-09-08T10:41:51.269Z,3.30
2017-09-08T10:44:18.919Z,3.40
2017-09-08T10:46:46.530Z,7.07
2017-09-08T10:49:14.859Z,7.53
2017-09-08T10:51:42.431Z,7.47
2017-09-08T10:54:10.127Z,9.07
2017-09-08T10:56:38.460Z,8.13
2017-09-08T10:59:06.167Z,8.47
2017-09-08T11:01:34.499Z,7.40
2017-09-08T11:04:02.070Z,7.27
2017-09-08T11:06:29.683Z,9.57
2017-09-08T11:08:57.259Z,8.83
2017-09-08T11:11:24.840Z,6.13
2017-09-08T11:13:52.456Z,4.27
2017-09-08T11:16:20.023Z,8.60
2017-09-08T11:18:47.615Z,8.40
2017-09-08T11:21:15.195Z,5.37
2017-09-08T11:23:42.787Z,7.70
2017-09-08T11:26:11.223Z,4.17
2017-09-08T11:28:38.811Z,7.70
2017-09-08T11:31:07.218Z,8.23
2017-09-08T11:33:40.360Z,9.00
2017-09-08T11:36:13.503Z,9.53
2017-09-08T11:38:41.095Z,8.20
2017-09-08T11:41:08.676Z,8.20
2017-09-08T11:43:37.052Z,9.07
2017-09-08T11:46:05.427Z,8.20
2017-09-08T11:48:33.080Z,7.10
2017-09-08T11:51:00.646Z,6.97
2017-09-08T11:53:29.007Z,7.93
2017-09-08T11:55:56.563Z,7.77
2017-09-08T11:58:24.287Z,7.53
2017-09-08T12:00:51.866Z,6.73
2017-09-08T12:03:19.467Z,7.47
2017-09-08T12:05:47.801Z,6.90
2017-09-08T12:08:15.383Z,8.13
2017-09-08T12:10:42.988Z,7.20
2017-09-08T12:13:10.554Z,6.00
2017-09-08T12:15:38.138Z,6.80
2017-09-08T12:18:05.724Z,6.63
2017-09-08T12:20:33.343Z,7.60
2017-09-08T12:23:00.935Z,6.73
2017-09-08T12:25:28.506Z,7.57
2017-09-08T12:27:56.882Z,7.07
2017-09-08T12:30:24.463Z,7.33
2017-09-08T12:32:52.040Z,6.97
2017-09-08T12:35:19.655Z,4.43
2017-09-08T12:37:47.221Z,5.90
2017-09-08T12:40:15.555Z,5.23
2017-09-08T12:42:43.127Z,5.37
2017-09-08T12:45:10.731Z,5.80
2017-09-08T12:47:39.072Z,5.87
2017-09-08T12:50:06.684Z,7.20
2017-09-08T12:52:34.248Z,6.50
2017-09-08T12:55:01.853Z,5.67
2017-09-08T12:57:29.460Z,5.30
2017-09-08T12:59:57.031Z,5.13
2017-09-08T13:02:24.632Z,6.23
2017-09-08T13:04:52.196Z,5.70
2017-09-08T13:07:19.787Z,8.73
2017-09-08T13:09:47.398Z,6.00
2017-09-08T13:12:14.972Z,5.43
2017-09-08T13:14:42.573Z,5.73
2017-09-08T13:17:10.127Z,5.43
2017-09-08T13:19:37.866Z,7.43
2017-09-08T13:22:06.199Z,6.50
2017-09-08T13:24:33.816Z,6.40
2017-09-08T13:27:01.395Z,6.20
2017-09-08T13:29:29.052Z,5.53
2017-09-08T13:31:56.717Z,5.50
2017-09-08T13:34:24.287Z,4.20
2017-09-08T13:36:51.884Z,4.50
2017-09-08T13:39:19.460Z,6.27
2017-09-08T13:41:47.867Z,3.80
2017-09-08T13:44:15.428Z,4.90
2017-09-08T13:46:43.003Z,5.60
2017-09-08T13:49:10.648Z,5.00
2017-09-08T13:51:38.215Z,4.20
2017-09-08T13:54:05.803Z,5.80
2017-09-08T13:56:33.363Z,4.67
2017-09-08T13:59:01.091Z,5.73
2017-09-08T14:01:28.663Z,5.10
2017-09-08T14:03:56.223Z,5.83
2017-09-08T14:06:23.848Z,5.77
2017-09-08T14:08:51.424Z,5.70
2017-09-08T14:11:19.193Z,5.60
2017-09-08T14:13:46.773Z,5.67
2017-09-08T14:16:14.427Z,5.13
2017-09-08T14:18:41.986Z,5.83
2017-09-08T14:21:09.553Z,5.53
2017-09-08T14:23:37.145Z,5.40
2017-09-08T14:26:05.488Z,4.57
2017-09-08T14:28:33.124Z,4.07
2017-09-08T14:31:00.706Z,4.47
2017-09-08T14:33:28.455Z,6.80
2017-09-08T14:35:56.060Z,6.07
2017-09-08T14:38:24.419Z,5.50
2017-09-08T14:40:52.744Z,5.20
2017-09-08T14:43:20.340Z,5.30
2017-09-08T14:45:47.941Z,6.10
2017-09-08T14:48:15.638Z,5.30
2017-09-08T14:50:43.316Z,4.90
2017-09-08T14:53:10.918Z,7.20
2017-09-08T14:55:39.283Z,5.20
2017-09-08T14:58:06.876Z,5.57
2017-09-08T15:00:34.486Z,6.20
2017-09-08T15:03:02.046Z,3.33
2017-09-08T15:05:30.375Z,5.30
2017-09-08T15:07:57.996Z,4.37
2017-09-08T15:10:26.328Z,3.17
2017-09-08T15:12:53.928Z,5.13
2017-09-08T15:15:22.300Z,3.90
2017-09-08T15:17:50.660Z,5.03
2017-09-08T15:20:19.021Z,2.97
2017-09-08T15:22:46.627Z,3.27
2017-09-08T15:25:14.947Z,4.70
2017-09-08T15:27:42.523Z,5.23
2017-09-08T15:30:10.119Z,3.50
2017-09-08T15:32:38.528Z,3.60
2017-09-08T15:35:06.087Z,4.80
2017-09-08T15:37:33.775Z,5.10
2017-09-08T15:40:01.347Z,3.80
2017-09-08T15:42:28.920Z,3.73
2017-09-08T15:44:57.291Z,4.17
2017-09-08T15:47:24.856Z,3.40
2017-09-08T15:49:53.219Z,3.60
2017-09-08T15:52:20.804Z,4.17
2017-09-08T15:54:49.175Z,4.60
2017-09-08T15:57:17.644Z,3.50
2017-09-08T15:59:45.202Z,4.23
2017-09-08T16:02:13.581Z,3.90
2017-09-08T16:04:41.908Z,4.10
2017-09-08T16:07:09.472Z,4.17
2017-09-08T16:09:37.075Z,5.37
2017-09-08T16:12:05.407Z,3.50
2017-09-08T16:14:32.997Z,4.20
2017-09-08T16:17:00.567Z,4.17
2017-09-08T16:19:28.929Z,3.83
2017-09-08T16:21:56.535Z,4.00
2017-09-08T16:24:24.099Z,3.70
2017-09-08T16:26:51.705Z,4.00
2017-09-08T16:29:19.281Z,4.13
2017-09-08T16:31:47.780Z,4.00
2017-09-08T16:34:15.381Z,3.90
2017-09-08T16:36:42.948Z,4.13
2017-09-08T16:39:10.547Z,4.03
2017-09-08T16:41:38.949Z,3.33
2017-09-08T16:44:06.509Z,3.80
2017-09-08T16:46:34.119Z,3.40
2017-09-08T16:49:01.689Z,4.37
2017-09-08T16:51:29.252Z,3.77
2017-09-08T16:53:57.612Z,3.70
2017-09-08T16:56:25.204Z,3.60
2017-09-08T16:58:52.775Z,3.70
2017-09-08T17:01:20.342Z,2.07
2017-09-08T17:03:47.937Z,2.90
2017-09-08T17:06:15.491Z,3.60
2017-09-08T17:08:43.101Z,3.90
2017-09-08T17:11:10.670Z,2.43
2017-09-08T17:13:38.353Z,3.77
2017-09-08T17:16:05.915Z,3.53
2017-09-08T17:18:33.482Z,3.40
2017-09-08T17:21:01.064Z,3.47
2017-09-08T17:23:28.619Z,3.40
2017-09-08T17:25:56.204Z,3.07
2017-09-08T17:28:24.535Z,4.67
2017-09-08T17:30:52.227Z,3.60
2017-09-08T17:33:20.686Z,2.90
2017-09-08T17:35:48.444Z,4.10
2017-09-08T17:38:16.055Z,4.10
2017-09-08T17:40:43.631Z,3.53
2017-09-08T17:43:11.196Z,4.33
2017-09-08T17:45:38.787Z,3.40
2017-09-08T17:48:06.479Z,2.70
2017-09-08T17:50:34.843Z,3.33
2017-09-08T17:53:03.181Z,3.53
2017-09-08T17:55:30.792Z,4.13
2017-09-08T17:57:59.135Z,3.40
2017-09-08T18:00:26.696Z,3.63
2017-09-08T18:02:54.300Z,3.77
2017-09-08T18:05:21.860Z,2.80
2017-09-08T18:07:49.480Z,4.47
2017-09-08T18:10:17.047Z,3.73
2017-09-08T18:12:45.435Z,3.50
2017-09-08T18:15:13.756Z,3.63
2017-09-08T18:17:41.325Z,4.83
2017-09-08T18:20:08.919Z,3.03
2017-09-08T18:22:37.245Z,3.87
2017-09-08T18:25:04.856Z,2.30
2017-09-08T18:27:33.179Z,3.90
2017-09-08T18:30:00.879Z,3.87
2017-09-08T18:32:29.219Z,3.57
2017-09-08T18:34:56.799Z,3.60
2017-09-08T18:37:24.483Z,1.93
2017-09-08T18:39:52.843Z,3.57
2017-09-08T18:42:20.463Z,4.30
2017-09-08T18:44:48.049Z,2.80
2017-09-08T18:47:15.623Z,2.73
2017-09-08T18:49:43.221Z,2.93
2017-09-08T18:52:10.797Z,3.40
2017-09-08T18:54:39.271Z,3.70
2017-09-08T18:57:06.835Z,3.33
2017-09-08T18:59:34.435Z,3.00
2017-09-08T19:02:02.031Z,2.00
2017-09-08T19:04:30.515Z,4.03
2017-09-08T19:06:58.116Z,3.50
2017-09-08T19:09:25.686Z,2.70
2017-09-08T19:11:53.279Z,3.80
2017-09-08T19:14:21.632Z,3.27
2017-09-08T19:16:49.196Z,3.67
2017-09-08T19:19:16.792Z,3.53
2017-09-08T19:21:44.448Z,3.97
2017-09-08T19:24:12.009Z,4.03
2017-09-08T19:26:39.731Z,4.17
2017-09-08T19:29:08.058Z,4.27
2017-09-08T19:31:35.667Z,3.40
2017-09-08T19:34:03.995Z,3.73
2017-09-08T19:36:31.559Z,3.53
2017-09-08T19:38:59.159Z,3.47
2017-09-08T19:41:27.488Z,4.60
2017-09-08T19:43:55.080Z,1.73
2017-09-08T19:46:22.659Z,3.60
2017-09-08T19:48:50.268Z,2.27
2017-09-08T19:51:17.869Z,3.60
2017-09-08T19:53:45.455Z,4.03
2017-09-08T19:56:13.827Z,1.87
2017-09-08T19:58:42.316Z,2.13
2017-09-08T20:01:10.829Z,3.00
2017-09-08T20:03:38.402Z,2.70
2017-09-08T20:06:06.065Z,2.80
2017-09-08T20:08:33.667Z,2.43
2017-09-08T20:11:02.044Z,3.40
2017-09-08T20:13:30.372Z,3.60
2017-09-08T20:15:57.967Z,3.73
2017-09-08T20:18:25.561Z,4.37
2017-09-08T20:20:53.179Z,3.90
2017-09-08T20:23:21.504Z,3.70
2017-09-08T20:25:49.239Z,3.93
2017-09-08T20:28:17.566Z,4.23
2017-09-08T20:30:45.144Z,4.40
2017-09-08T20:33:12.735Z,4.07
2017-09-08T20:35:41.074Z,4.50
2017-09-08T20:38:08.667Z,4.07
2017-09-08T20:40:37.072Z,4.67
2017-09-08T20:43:04.661Z,4.70
2017-09-08T20:45:32.216Z,4.40
2017-09-08T20:47:59.789Z,4.50
2017-09-08T20:50:27.387Z,4.77
2017-09-08T20:52:55.727Z,4.63
2017-09-08T20:55:23.323Z,4.60
2017-09-08T20:57:50.920Z,5.20
2017-09-08T21:00:18.516Z,4.30
2017-09-08T21:02:46.083Z,4.60
2017-09-08T21:05:14.455Z,4.20
2017-09-08T21:07:42.036Z,4.93
2017-09-08T21:10:09.616Z,4.80
2017-09-08T21:12:37.223Z,4.70
2017-09-08T21:15:04.815Z,4.27
2017-09-08T21:17:32.415Z,4.57
2017-09-08T21:19:59.986Z,4.73
2017-09-08T21:22:27.579Z,4.30
2017-09-08T21:24:55.918Z,5.00
2017-09-08T21:27:23.482Z,3.70
2017-09-08T21:29:51.076Z,3.17
2017-09-08T21:32:19.415Z,2.97
2017-09-08T21:34:47.019Z,5.03
2017-09-08T21:37:14.576Z,4.23
2017-09-08T21:39:42.931Z,4.40
2017-09-08T21:42:11.263Z,4.17
2017-09-08T21:44:38.835Z,4.60
2017-09-08T21:47:06.399Z,5.30
2017-09-08T21:49:33.959Z,4.10
2017-09-08T21:52:01.555Z,5.03
2017-09-08T21:54:29.131Z,4.17
2017-09-08T21:56:56.859Z,4.60
2017-09-08T21:59:24.419Z,4.30
2017-09-08T22:01:52.755Z,5.70
2017-09-08T22:04:20.350Z,4.37
2017-09-08T22:06:47.921Z,4.10
2017-09-08T22:09:16.275Z,4.70
2017-09-08T22:11:43.836Z,4.13
2017-09-08T22:14:11.438Z,5.10
2017-09-08T22:16:39.000Z,4.43
2017-09-08T22:19:06.727Z,4.50
2017-09-08T22:21:34.287Z,4.47
2017-09-08T22:24:02.619Z,4.50
2017-09-08T22:26:30.208Z,4.37
2017-09-08T22:28:57.800Z,4.80
2017-09-08T22:31:26.135Z,4.40
2017-09-08T22:33:53.723Z,3.33
2017-09-08T22:36:22.099Z,5.10
2017-09-08T22:38:50.428Z,4.40
2017-09-08T22:41:17.991Z,4.77
2017-09-08T22:43:45.586Z,3.50
2017-09-08T22:46:13.139Z,4.00
2017-09-08T22:48:40.797Z,3.97
2017-09-08T22:51:08.352Z,3.27
2017-09-08T22:53:35.916Z,2.90
2017-09-08T22:56:03.507Z,3.17
2017-09-08T22:58:31.104Z,4.53
2017-09-08T23:00:58.662Z,3.67
2017-09-08T23:03:26.271Z,3.40
2017-09-08T23:05:54.675Z,3.43
2017-09-08T23:08:22.237Z,3.67
2017-09-08T23:10:49.829Z,3.33
2017-09-08T23:13:17.398Z,3.10
2017-09-08T23:15:44.959Z,3.20
2017-09-08T23:18:13.306Z,3.67
2017-09-08T23:20:40.866Z,4.17
2017-09-08T23:23:08.464Z,3.93
2017-09-08T23:25:36.024Z,4.17
2017-09-08T23:28:04.395Z,4.17
2017-09-08T23:30:31.955Z,4.20
2017-09-08T23:33:00.283Z,4.07
2017-09-08T23:35:27.875Z,3.93
2017-09-08T23:37:55.458Z,3.90
2017-09-08T23:40:23.819Z,3.57
2017-09-08T23:42:51.375Z,3.50
2017-09-08T23:45:19.727Z,4.40
2017-09-08T23:47:47.295Z,4.20
2017-09-08T23:50:14.891Z,4.10
2017-09-08T23:52:43.360Z,4.60
2017-09-08T23:55:11.691Z,4.67
2017-09-08T23:57:39.287Z,5.00
